createdAt,value
2018-08-03T00:00:03.480Z,65.60
2018-08-03T00:02:32.712Z,65.60
2018-08-03T00:05:01.746Z,65.40
2018-08-03T00:09:58.746Z,65.70
2018-08-03T00:12:27.605Z,65.60
2018-08-03T00:14:56.323Z,65.70
2018-08-03T00:17:24.888Z,66.00
2018-08-03T00:19:53.555Z,66.50
2018-08-03T00:24:50.430Z,66.40
2018-08-03T00:27:19.158Z,66.50
2018-08-03T00:29:47.824Z,66.30
2018-08-03T00:32:17.617Z,66.00
2018-08-03T00:37:15.906Z,65.80
2018-08-03T00:42:13.339Z,66.20
2018-08-03T00:44:42.674Z,66.30
2018-08-03T00:47:12.360Z,66.20
2018-08-03T00:49:41.172Z,66.30
2018-08-03T00:52:09.806Z,66.20
2018-08-03T00:54:39.841Z,66.30
2018-08-03T00:57:09.151Z,66.20
2018-08-03T00:59:37.726Z,66.30
2018-08-03T01:02:06.569Z,66.00
2018-08-03T01:04:35.277Z,65.90
2018-08-03T01:07:04.070Z,66.00
2018-08-03T01:09:32.823Z,66.40
2018-08-03T01:12:02.016Z,66.90
2018-08-03T01:14:31.948Z,67.40
2018-08-03T01:17:00.775Z,67.70
2018-08-03T01:19:29.666Z,67.70
2018-08-03T01:21:58.336Z,67.80
2018-08-03T01:24:26.918Z,67.90
2018-08-03T01:26:55.809Z,67.80
2018-08-03T01:29:24.393Z,67.80
2018-08-03T01:31:53.535Z,67.90
2018-08-03T01:34:22.105Z,68.10
2018-08-03T01:36:52.282Z,67.90
2018-08-03T01:39:21.211Z,67.90
2018-08-03T01:41:50.390Z,67.60
2018-08-03T01:44:19.144Z,67.20
2018-08-03T01:46:48.000Z,67.10
2018-08-03T01:49:16.582Z,67.40
2018-08-03T01:51:45.228Z,67.70
2018-08-03T01:54:14.159Z,67.70
2018-08-03T01:56:43.317Z,67.60
2018-08-03T01:59:12.025Z,67.90
2018-08-03T02:01:40.761Z,67.70
2018-08-03T02:04:09.311Z,67.70
2018-08-03T02:06:37.943Z,67.50
2018-08-03T02:09:08.735Z,67.20
2018-08-03T02:11:37.706Z,67.10
2018-08-03T02:14:06.718Z,67.10
2018-08-03T02:16:35.612Z,67.30
2018-08-03T02:19:04.390Z,67.40
2018-08-03T02:21:32.937Z,67.10
2018-08-03T02:24:01.591Z,66.90
2018-08-03T02:26:30.203Z,66.80
2018-08-03T02:28:59.153Z,66.70
2018-08-03T02:31:28.112Z,66.80
2018-08-03T02:33:57.274Z,66.70
2018-08-03T02:36:26.418Z,67.00
2018-08-03T02:38:55.067Z,67.10
2018-08-03T02:41:23.671Z,67.60
2018-08-03T02:43:52.484Z,68.10
2018-08-03T02:46:21.168Z,68.50
2018-08-03T02:48:49.825Z,68.50
2018-08-03T02:51:18.403Z,68.30
2018-08-03T02:53:47.088Z,68.30
2018-08-03T02:56:16.107Z,68.50
2018-08-03T02:58:45.383Z,68.70
2018-08-03T03:01:14.291Z,68.70
2018-08-03T03:03:42.871Z,68.50
2018-08-03T03:06:11.456Z,68.50
2018-08-03T03:08:40.123Z,68.60
2018-08-03T03:11:09.212Z,68.60
2018-08-03T03:13:38.463Z,68.90
2018-08-03T03:16:07.223Z,69.00
2018-08-03T03:18:36.511Z,68.50
2018-08-03T03:21:05.191Z,67.90
2018-08-03T03:23:34.159Z,67.70
2018-08-03T03:26:03.261Z,67.40
2018-08-03T03:28:32.489Z,67.20
2018-08-03T03:31:01.224Z,67.20
2018-08-03T03:33:30.212Z,65.90
2018-08-03T03:35:58.850Z,66.90
2018-08-03T03:38:27.639Z,67.10
2018-08-03T03:40:56.286Z,67.10
2018-08-03T03:43:25.267Z,67.10
2018-08-03T03:45:54.276Z,67.30
2018-08-03T03:48:22.900Z,67.30
2018-08-03T03:50:51.638Z,67.20
2018-08-03T03:53:20.219Z,66.90
2018-08-03T03:55:48.875Z,66.70
2018-08-03T03:58:17.798Z,66.90
2018-08-03T04:00:47.713Z,67.00
2018-08-03T04:03:16.305Z,67.20
2018-08-03T04:05:45.548Z,67.40
2018-08-03T04:08:14.618Z,68.10
2018-08-03T04:10:44.173Z,67.60
2018-08-03T04:13:13.736Z,67.20
2018-08-03T04:15:43.484Z,67.30
2018-08-03T04:18:16.929Z,67.30
2018-08-03T04:23:14.232Z,67.50
2018-08-03T04:25:43.882Z,67.70
2018-08-03T04:28:12.498Z,67.80
2018-08-03T04:30:41.688Z,67.50
2018-08-03T04:33:11.878Z,67.40
2018-08-03T04:35:41.016Z,67.50
2018-08-03T04:38:10.120Z,67.60
2018-08-03T04:40:39.216Z,67.80
2018-08-03T04:43:08.292Z,67.70
2018-08-03T04:45:37.763Z,67.60
2018-08-03T04:48:07.780Z,67.50
2018-08-03T04:50:36.634Z,67.50
2018-08-03T04:53:05.551Z,68.10
2018-08-03T04:55:34.430Z,67.90
2018-08-03T04:58:03.796Z,67.80
2018-08-03T05:00:33.012Z,67.80
2018-08-03T05:03:01.632Z,67.70
2018-08-03T05:05:30.283Z,67.50
2018-08-03T05:07:59.108Z,68.20
2018-08-03T05:10:27.997Z,68.20
2018-08-03T05:12:57.165Z,67.70
2018-08-03T05:15:26.548Z,67.90
2018-08-03T05:20:23.715Z,67.80
2018-08-03T05:22:52.526Z,67.90
2018-08-03T05:25:21.385Z,67.90
2018-08-03T05:27:50.188Z,67.70
2018-08-03T05:30:18.778Z,67.70
2018-08-03T05:32:48.229Z,67.20
2018-08-03T05:35:17.023Z,67.20
2018-08-03T05:37:46.292Z,67.20
2018-08-03T05:40:14.943Z,67.10
2018-08-03T05:42:43.588Z,67.40
2018-08-03T05:45:12.873Z,67.20
2018-08-03T05:47:41.956Z,67.40
2018-08-03T05:50:11.581Z,67.40
2018-08-03T05:52:40.369Z,67.50
2018-08-03T05:55:09.672Z,67.20
2018-08-03T05:57:38.309Z,67.60
2018-08-03T06:00:07.840Z,67.40
2018-08-03T06:02:36.533Z,67.20
2018-08-03T06:05:06.714Z,66.80
2018-08-03T06:07:35.388Z,66.40
2018-08-03T06:10:04.515Z,66.30
2018-08-03T06:12:34.331Z,66.30
2018-08-03T06:15:02.933Z,66.30
2018-08-03T06:17:32.316Z,66.50
2018-08-03T06:20:01.266Z,66.10
2018-08-03T06:22:30.509Z,66.10
2018-08-03T06:24:59.143Z,65.80
2018-08-03T06:27:27.795Z,66.00
2018-08-03T06:29:56.403Z,65.90
2018-08-03T06:32:24.946Z,65.60
2018-08-03T06:34:53.748Z,65.30
2018-08-03T06:37:22.321Z,65.20
2018-08-03T06:39:51.324Z,64.80
2018-08-03T06:42:20.585Z,64.60
2018-08-03T06:44:49.235Z,64.30
2018-08-03T06:47:18.441Z,64.00
2018-08-03T06:49:47.122Z,63.70
2018-08-03T06:52:16.742Z,63.20
2018-08-03T06:54:45.398Z,62.90
2018-08-03T06:57:14.290Z,62.70
2018-08-03T06:59:42.976Z,62.50
2018-08-03T07:02:11.888Z,62.10
2018-08-03T07:04:41.189Z,61.50
2018-08-03T07:07:10.364Z,61.10
2018-08-03T07:09:39.353Z,60.20
2018-08-03T07:12:08.462Z,59.70
2018-08-03T07:14:37.719Z,59.40
2018-08-03T07:17:06.772Z,59.00
2018-08-03T07:19:36.178Z,58.60
2018-08-03T07:22:05.432Z,58.20
2018-08-03T07:24:35.009Z,57.80
2018-08-03T07:27:05.282Z,57.40
2018-08-03T07:29:34.261Z,56.90
2018-08-03T07:32:03.363Z,56.60
2018-08-03T07:34:32.765Z,56.40
2018-08-03T07:37:01.508Z,56.00
2018-08-03T07:39:30.806Z,55.50
2018-08-03T07:41:59.902Z,55.10
2018-08-03T07:44:28.740Z,54.80
2018-08-03T07:46:57.980Z,55.00
2018-08-03T07:49:26.887Z,54.30
2018-08-03T07:54:24.823Z,54.30
2018-08-03T07:56:54.260Z,54.10
2018-08-03T07:59:24.441Z,54.30
2018-08-03T08:01:53.062Z,53.90
2018-08-03T08:04:21.733Z,53.80
2018-08-03T08:06:50.952Z,53.60
2018-08-03T08:09:19.585Z,53.30
2018-08-03T08:11:49.168Z,53.50
2018-08-03T08:14:18.966Z,53.70
2018-08-03T08:16:47.784Z,53.90
2018-08-03T08:19:17.942Z,53.30
2018-08-03T08:21:47.028Z,53.50
2018-08-03T08:24:16.336Z,53.10
2018-08-03T08:26:45.336Z,52.90
2018-08-03T08:29:14.761Z,53.00
2018-08-03T08:31:43.975Z,53.00
2018-08-03T08:34:13.053Z,52.70
2018-08-03T08:36:42.154Z,53.10
2018-08-03T08:39:13.567Z,52.90
2018-08-03T08:41:43.519Z,52.70
2018-08-03T08:44:14.491Z,52.60
2018-08-03T08:46:44.142Z,52.60
2018-08-03T08:49:13.055Z,52.40
2018-08-03T08:51:42.394Z,52.50
2018-08-03T08:54:12.333Z,52.30
2018-08-03T08:56:41.604Z,52.50
2018-08-03T08:59:10.429Z,52.10
2018-08-03T09:01:40.355Z,52.10
2018-08-03T09:04:09.861Z,52.00
2018-08-03T09:06:38.977Z,52.00
2018-08-03T09:09:09.879Z,52.40
2018-08-03T09:11:40.198Z,52.30
2018-08-03T09:14:09.572Z,52.10
2018-08-03T09:16:38.510Z,51.70
2018-08-03T09:19:07.903Z,51.80
2018-08-03T09:21:36.865Z,51.20
2018-08-03T09:26:34.320Z,52.10
2018-08-03T09:29:03.572Z,50.80
2018-08-03T09:31:32.873Z,50.90
2018-08-03T09:34:01.817Z,50.90
2018-08-03T09:36:32.153Z,50.90
2018-08-03T09:39:00.896Z,50.80
2018-08-03T09:41:30.385Z,50.00
2018-08-03T09:44:00.562Z,50.30
2018-08-03T09:48:58.440Z,50.10
2018-08-03T09:51:27.653Z,49.40
2018-08-03T09:53:56.398Z,49.30
2018-08-03T09:56:25.601Z,48.90
2018-08-03T09:58:55.159Z,48.60
2018-08-03T10:01:23.987Z,48.40
2018-08-03T10:03:53.504Z,48.60
2018-08-03T10:06:23.147Z,48.50
2018-08-03T10:08:52.116Z,48.70
2018-08-03T10:11:20.846Z,48.40
2018-08-03T10:13:49.983Z,48.70
2018-08-03T10:16:18.876Z,48.50
2018-08-03T10:18:47.455Z,48.50
2018-08-03T10:21:16.098Z,48.10
2018-08-03T10:23:44.826Z,48.70
2018-08-03T10:26:14.940Z,49.30
2018-08-03T10:28:45.653Z,48.20
2018-08-03T10:31:14.464Z,48.50
2018-08-03T10:33:43.226Z,48.00
2018-08-03T10:36:12.328Z,49.20
2018-08-03T10:38:41.664Z,47.70
2018-08-03T10:41:10.520Z,47.70
2018-08-03T10:43:40.356Z,47.60
2018-08-03T10:46:09.462Z,48.20
2018-08-03T10:48:38.884Z,48.60
2018-08-03T10:51:08.272Z,48.70
2018-08-03T10:53:37.480Z,48.70
2018-08-03T10:56:06.751Z,48.50
2018-08-03T10:58:36.211Z,48.50
2018-08-03T11:06:02.661Z,48.80
2018-08-03T11:08:31.822Z,47.80
2018-08-03T11:11:01.643Z,48.10
2018-08-03T11:13:30.439Z,47.90
2018-08-03T11:15:59.473Z,47.90
2018-08-03T11:18:28.048Z,47.90
2018-08-03T11:20:57.744Z,48.40
2018-08-03T11:25:55.151Z,47.70
2018-08-03T11:28:23.798Z,47.80
2018-08-03T11:33:20.748Z,48.20
2018-08-03T11:35:49.427Z,47.70
2018-08-03T11:38:18.068Z,47.00
2018-08-03T11:40:46.935Z,47.20
2018-08-03T11:43:16.922Z,47.00
2018-08-03T11:45:46.352Z,47.00
2018-08-03T11:48:15.274Z,47.30
2018-08-03T11:50:44.256Z,47.40
2018-08-03T11:53:12.911Z,46.40
2018-08-03T11:55:42.185Z,47.30
2018-08-03T11:58:11.523Z,46.80
2018-08-03T12:00:40.439Z,46.10
2018-08-03T12:03:09.532Z,44.00
2018-08-03T12:05:38.467Z,45.30
2018-08-03T12:08:07.177Z,45.60
2018-08-03T12:10:36.741Z,46.00
2018-08-03T12:13:05.487Z,46.30
2018-08-03T12:15:34.609Z,46.80
2018-08-03T12:18:04.216Z,46.90
2018-08-03T12:20:33.236Z,46.70
2018-08-03T12:23:02.434Z,46.60
2018-08-03T12:25:32.716Z,46.40
2018-08-03T12:28:01.340Z,46.20
2018-08-03T12:30:30.584Z,46.30
2018-08-03T12:32:59.531Z,46.10
2018-08-03T12:35:28.947Z,45.80
2018-08-03T12:37:57.899Z,46.20
2018-08-03T12:40:27.328Z,45.60
2018-08-03T12:42:56.635Z,46.10
2018-08-03T12:45:33.834Z,46.00
2018-08-03T12:47:54.372Z,46.00
2018-08-03T12:52:53.226Z,45.00
2018-08-03T12:55:21.871Z,45.20
2018-08-03T12:57:51.614Z,44.70
2018-08-03T13:00:20.270Z,45.40
2018-08-03T13:02:50.410Z,44.60
2018-08-03T13:05:19.196Z,44.50
2018-08-03T13:07:49.508Z,44.50
2018-08-03T13:10:18.429Z,44.60
2018-08-03T13:12:48.231Z,44.60
2018-08-03T13:15:18.904Z,44.20
2018-08-03T13:17:48.827Z,43.80
2018-08-03T13:20:18.083Z,44.30
2018-08-03T13:22:46.913Z,44.60
2018-08-03T13:25:17.105Z,44.20
2018-08-03T13:27:46.823Z,44.20
2018-08-03T13:30:16.687Z,44.60
2018-08-03T13:32:55.929Z,44.40
2018-08-03T13:35:24.846Z,44.30
2018-08-03T13:37:54.009Z,43.60
2018-08-03T13:40:23.781Z,44.20
2018-08-03T13:42:53.277Z,43.50
2018-08-03T13:45:22.169Z,43.50
2018-08-03T13:47:51.576Z,43.20
2018-08-03T13:50:20.535Z,42.20
2018-08-03T13:52:49.819Z,42.90
2018-08-03T13:55:18.857Z,42.50
2018-08-03T13:57:47.619Z,41.80
2018-08-03T14:00:17.390Z,41.50
2018-08-03T14:02:46.583Z,42.20
2018-08-03T14:05:15.185Z,42.90
2018-08-03T14:07:44.575Z,42.80
2018-08-03T14:10:13.470Z,42.70
2018-08-03T14:12:42.540Z,43.30
2018-08-03T14:15:11.296Z,42.50
2018-08-03T14:17:40.560Z,41.40
2018-08-03T14:22:38.537Z,41.20
2018-08-03T14:25:07.510Z,41.80
2018-08-03T14:27:37.088Z,42.30
2018-08-03T14:30:07.197Z,42.50
2018-08-03T14:32:36.063Z,42.40
2018-08-03T14:37:33.383Z,42.70
2018-08-03T14:40:02.262Z,43.80
2018-08-03T14:42:31.907Z,43.00
2018-08-03T14:45:01.542Z,42.70
2018-08-03T14:47:30.319Z,42.70
2018-08-03T14:49:59.597Z,42.50
2018-08-03T14:52:28.460Z,43.30
2018-08-03T14:54:58.595Z,43.40
2018-08-03T14:57:27.177Z,43.30
2018-08-03T14:59:56.163Z,41.30
2018-08-03T15:02:24.879Z,41.40
2018-08-03T15:04:54.211Z,41.10
2018-08-03T15:07:23.587Z,41.70
2018-08-03T15:09:52.461Z,40.20
2018-08-03T15:12:21.267Z,39.50
2018-08-03T15:14:49.908Z,39.30
2018-08-03T15:17:18.893Z,39.00
2018-08-03T15:19:49.199Z,39.20
2018-08-03T15:22:17.886Z,38.50
2018-08-03T15:24:47.638Z,39.60
2018-08-03T15:27:16.786Z,39.80
2018-08-03T15:29:45.805Z,39.40
2018-08-03T15:32:14.493Z,40.20
2018-08-03T15:34:43.475Z,40.10
2018-08-03T15:37:12.109Z,40.50
2018-08-03T15:39:40.836Z,40.50
2018-08-03T15:42:10.747Z,41.20
2018-08-03T15:44:39.892Z,41.30
2018-08-03T15:47:08.986Z,40.50
2018-08-03T15:49:38.473Z,41.20
2018-08-03T15:52:07.193Z,40.60
2018-08-03T15:54:35.977Z,38.50
2018-08-03T15:57:04.760Z,39.90
2018-08-03T15:59:33.643Z,40.30
2018-08-03T16:02:05.483Z,40.60
2018-08-03T16:04:34.569Z,40.60
2018-08-03T16:07:03.812Z,41.20
2018-08-03T16:09:32.443Z,40.20
2018-08-03T16:12:02.649Z,40.80
2018-08-03T16:14:31.516Z,40.40
2018-08-03T16:17:00.167Z,40.10
2018-08-03T16:19:29.281Z,40.20
2018-08-03T16:21:58.093Z,40.60
2018-08-03T16:24:26.719Z,40.90
2018-08-03T16:26:55.942Z,40.90
2018-08-03T16:29:24.953Z,41.70
2018-08-03T16:31:53.616Z,42.00
2018-08-03T16:34:22.631Z,41.70
2018-08-03T16:36:51.420Z,41.70
2018-08-03T16:39:20.956Z,42.20
2018-08-03T16:41:49.715Z,42.60
2018-08-03T16:44:18.502Z,41.40
2018-08-03T16:46:47.169Z,41.50
2018-08-03T16:49:15.938Z,41.90
2018-08-03T16:51:44.592Z,42.00
2018-08-03T16:56:42.369Z,41.70
2018-08-03T16:59:11.056Z,41.60
2018-08-03T17:01:39.804Z,41.20
2018-08-03T17:04:09.622Z,41.40
2018-08-03T17:06:38.177Z,41.50
2018-08-03T17:09:09.759Z,41.50
2018-08-03T17:11:38.996Z,42.00
2018-08-03T17:14:08.952Z,41.80
2018-08-03T17:16:37.543Z,42.40
2018-08-03T17:19:07.695Z,41.90
2018-08-03T17:21:36.676Z,42.30
2018-08-03T17:24:05.396Z,41.20
2018-08-03T17:26:33.975Z,41.40
2018-08-03T17:29:02.653Z,42.00
2018-08-03T17:31:31.859Z,42.00
2018-08-03T17:36:29.291Z,43.20
2018-08-03T17:38:58.177Z,43.50
2018-08-03T17:41:26.777Z,43.60
2018-08-03T17:43:56.273Z,43.50
2018-08-03T17:46:25.299Z,42.60
2018-08-03T17:48:54.456Z,43.20
2018-08-03T17:51:23.351Z,43.90
2018-08-03T17:53:52.051Z,43.90
2018-08-03T17:56:21.198Z,43.90
2018-08-03T17:58:50.125Z,44.10
2018-08-03T18:01:18.938Z,44.50
2018-08-03T18:03:47.842Z,44.90
2018-08-03T18:06:17.248Z,45.00
2018-08-03T18:08:46.205Z,45.10
2018-08-03T18:11:16.159Z,45.40
2018-08-03T18:13:45.050Z,45.80
2018-08-03T18:16:14.523Z,45.30
2018-08-03T18:18:43.729Z,44.90
2018-08-03T18:21:13.265Z,45.30
2018-08-03T18:23:43.424Z,45.40
2018-08-03T18:26:12.723Z,45.90
2018-08-03T18:28:41.392Z,45.60
2018-08-03T18:31:10.090Z,45.90
2018-08-03T18:33:38.756Z,46.00
2018-08-03T18:36:07.292Z,46.10
2018-08-03T18:38:36.095Z,46.40
2018-08-03T18:41:04.649Z,46.40
2018-08-03T18:43:33.334Z,46.50
2018-08-03T18:46:02.082Z,46.60
2018-08-03T18:48:31.628Z,46.90
2018-08-03T18:51:00.294Z,47.20
2018-08-03T18:53:29.211Z,47.40
2018-08-03T18:55:58.132Z,47.50
2018-08-03T18:58:27.876Z,47.60
2018-08-03T19:03:24.720Z,48.10
2018-08-03T19:05:53.379Z,48.40
2018-08-03T19:08:22.278Z,48.60
2018-08-03T19:10:51.654Z,48.80
2018-08-03T19:13:20.740Z,48.90
2018-08-03T19:15:49.797Z,49.00
2018-08-03T19:18:20.027Z,49.20
2018-08-03T19:20:49.021Z,49.40
2018-08-03T19:23:17.977Z,49.60
2018-08-03T19:25:46.690Z,49.70
2018-08-03T19:28:15.694Z,50.00
2018-08-03T19:30:44.443Z,50.20
2018-08-03T19:33:13.073Z,50.30
2018-08-03T19:35:42.103Z,50.10
2018-08-03T19:38:11.351Z,50.20
2018-08-03T19:40:40.005Z,50.40
2018-08-03T19:43:08.695Z,50.60
2018-08-03T19:45:37.655Z,50.70
2018-08-03T19:48:06.296Z,50.80
2018-08-03T19:50:35.218Z,50.80
2018-08-03T19:53:03.946Z,50.80
2018-08-03T19:55:33.081Z,50.80
2018-08-03T19:58:01.746Z,51.00
2018-08-03T20:00:30.723Z,51.10
2018-08-03T20:02:59.463Z,51.10
2018-08-03T20:05:28.389Z,51.30
2018-08-03T20:07:57.009Z,51.50
2018-08-03T20:10:25.753Z,51.70
2018-08-03T20:12:54.519Z,51.70
2018-08-03T20:15:24.368Z,51.80
2018-08-03T20:17:53.068Z,52.50
2018-08-03T20:20:22.204Z,51.90
2018-08-03T20:25:19.791Z,52.30
2018-08-03T20:27:49.185Z,52.40
2018-08-03T20:32:46.620Z,52.50
2018-08-03T20:35:15.600Z,52.60
2018-08-03T20:37:44.194Z,52.60
2018-08-03T20:40:13.045Z,52.80
2018-08-03T20:42:41.828Z,52.80
2018-08-03T20:45:10.517Z,52.90
2018-08-03T20:47:39.344Z,52.90
2018-08-03T20:50:08.300Z,53.00
2018-08-03T20:52:37.404Z,53.00
2018-08-03T20:55:06.608Z,53.10
2018-08-03T20:57:35.382Z,53.10
2018-08-03T21:00:04.901Z,53.40
2018-08-03T21:02:33.654Z,53.30
2018-08-03T21:05:02.934Z,53.50
2018-08-03T21:07:31.590Z,53.40
2018-08-03T21:10:00.971Z,53.50
2018-08-03T21:12:30.345Z,53.50
2018-08-03T21:14:59.210Z,53.60
2018-08-03T21:17:28.979Z,53.70
2018-08-03T21:19:58.037Z,53.70
2018-08-03T21:24:57.860Z,53.80
2018-08-03T21:27:27.413Z,54.00
2018-08-03T21:29:56.310Z,54.10
2018-08-03T21:32:25.090Z,54.10
2018-08-03T21:34:54.039Z,54.10
2018-08-03T21:37:23.315Z,53.90
2018-08-03T21:39:52.120Z,54.10
2018-08-03T21:42:22.067Z,54.20
2018-08-03T21:44:51.084Z,54.10
2018-08-03T21:47:20.165Z,54.30
2018-08-03T21:49:49.178Z,54.30
2018-08-03T21:52:18.863Z,54.50
2018-08-03T21:54:47.719Z,54.30
2018-08-03T21:57:16.818Z,54.20
2018-08-03T21:59:45.983Z,54.10
2018-08-03T22:02:14.788Z,54.10
2018-08-03T22:04:43.376Z,54.10
2018-08-03T22:07:12.092Z,54.10
2018-08-03T22:09:40.678Z,54.10
2018-08-03T22:12:09.317Z,54.40
2018-08-03T22:14:37.934Z,54.70
2018-08-03T22:17:06.552Z,55.00
2018-08-03T22:19:35.919Z,55.00
2018-08-03T22:22:04.746Z,55.20
2018-08-03T22:24:33.416Z,55.40
2018-08-03T22:27:02.041Z,55.40
2018-08-03T22:29:30.767Z,55.60
2018-08-03T22:31:59.400Z,55.80
2018-08-03T22:34:28.012Z,56.00
2018-08-03T22:36:56.629Z,56.10
2018-08-03T22:39:25.223Z,56.20
2018-08-03T22:41:53.851Z,56.30
2018-08-03T22:44:22.443Z,56.20
2018-08-03T22:46:51.095Z,56.20
2018-08-03T22:49:20.427Z,56.10
2018-08-03T22:51:49.092Z,56.00
2018-08-03T22:54:17.744Z,56.00
2018-08-03T22:56:46.361Z,55.80
2018-08-03T22:59:14.995Z,55.60
2018-08-03T23:01:43.882Z,55.80
2018-08-03T23:04:12.468Z,56.10
2018-08-03T23:06:41.143Z,56.30
2018-08-03T23:09:10.632Z,56.40
2018-08-03T23:11:39.279Z,56.40
2018-08-03T23:14:08.091Z,56.40
2018-08-03T23:16:37.019Z,56.60
2018-08-03T23:19:06.081Z,56.70
2018-08-03T23:21:34.762Z,56.80
2018-08-03T23:24:03.655Z,56.60
2018-08-03T23:26:32.278Z,56.50
2018-08-03T23:29:01.534Z,56.40
2018-08-03T23:31:30.103Z,56.40
2018-08-03T23:33:58.892Z,56.30
2018-08-03T23:36:27.407Z,56.60
2018-08-03T23:38:56.053Z,57.00
2018-08-03T23:41:24.831Z,57.50
2018-08-03T23:43:53.532Z,57.90
2018-08-03T23:46:23.240Z,58.10
2018-08-03T23:48:52.100Z,58.30
2018-08-03T23:51:20.631Z,58.40
2018-08-03T23:53:49.456Z,58.60
2018-08-03T23:56:18.940Z,58.60
2018-08-03T23:58:47.604Z,58.90
